sensor_id;sensor_type;location;lat;lon;timestamp;P1;durP1;ratioP1;P2;durP2;ratioP2
15354;SDS011;7777;52.254;9.618;2023-06-14T00:01:46;4.30;;;2.33;;
15354;SDS011;7777;52.254;9.618;2023-06-14T00:04:13;5.57;;;2.43;;
15354;SDS011;7777;52.254;9.618;2023-06-14T00:06:41;4.83;;;2.50;;
15354;SDS011;7777;52.254;9.618;2023-06-14T00:09:10;7.30;;;2.70;;
15354;SDS011;7777;52.254;9.618;2023-06-14T00:11:38;6.10;;;2.40;;
15354;SDS011;7777;52.254;9.618;2023-06-14T00:14:05;5.57;;;2.83;;
15354;SDS011;7777;52.254;9.618;2023-06-14T00:19:03;4.80;;;2.73;;
15354;SDS011;7777;52.254;9.618;2023-06-14T00:21:30;3.80;;;2.60;;
15354;SDS011;7777;52.254;9.618;2023-06-14T00:23:57;7.40;;;2.33;;
15354;SDS011;7777;52.254;9.618;2023-06-14T00:26:24;5.97;;;2.50;;
15354;SDS011;7777;52.254;9.618;2023-06-14T00:28:51;5.40;;;2.83;;
15354;SDS011;7777;52.254;9.618;2023-06-14T00:31:17;3.33;;;2.50;;
15354;SDS011;7777;52.254;9.618;2023-06-14T00:33:43;4.93;;;2.50;;
15354;SDS011;7777;52.254;9.618;2023-06-14T00:36:09;3.93;;;2.77;;
15354;SDS011;7777;52.254;9.618;2023-06-14T00:38:36;4.67;;;2.73;;
15354;SDS011;7777;52.254;9.618;2023-06-14T00:41:02;8.33;;;2.90;;
15354;SDS011;7777;52.254;9.618;2023-06-14T00:43:27;5.70;;;2.50;;
15354;SDS011;7777;52.254;9.618;2023-06-14T00:45:53;5.87;;;2.20;;
15354;SDS011;7777;52.254;9.618;2023-06-14T00:48:19;7.50;;;3.17;;
15354;SDS011;7777;52.254;9.618;2023-06-14T00:50:45;4.77;;;2.60;;
15354;SDS011;7777;52.254;9.618;2023-06-14T00:53:13;3.47;;;2.40;;
15354;SDS011;7777;52.254;9.618;2023-06-14T00:55:42;6.37;;;3.67;;
15354;SDS011;7777;52.254;9.618;2023-06-14T00:58:08;4.07;;;3.07;;
15354;SDS011;7777;52.254;9.618;2023-06-14T01:00:35;5.70;;;2.97;;
15354;SDS011;7777;52.254;9.618;2023-06-14T01:03:01;5.13;;;3.07;;
15354;SDS011;7777;52.254;9.618;2023-06-14T01:05:28;5.13;;;2.80;;
15354;SDS011;7777;52.254;9.618;2023-06-14T01:13:43;6.30;;;2.53;;
15354;SDS011;7777;52.254;9.618;2023-06-14T01:16:11;4.43;;;2.40;;
15354;SDS011;7777;52.254;9.618;2023-06-14T01:18:40;3.10;;;2.30;;
15354;SDS011;7777;52.254;9.618;2023-06-14T01:21:19;4.20;;;2.80;;
15354;SDS011;7777;52.254;9.618;2023-06-14T01:23:49;7.20;;;2.60;;
15354;SDS011;7777;52.254;9.618;2023-06-14T01:26:20;3.37;;;2.80;;
15354;SDS011;7777;52.254;9.618;2023-06-14T01:28:47;7.67;;;2.63;;
15354;SDS011;7777;52.254;9.618;2023-06-14T01:31:17;5.97;;;3.07;;
15354;SDS011;7777;52.254;9.618;2023-06-14T01:33:46;5.10;;;3.07;;
15354;SDS011;7777;52.254;9.618;2023-06-14T01:36:15;4.47;;;3.03;;
15354;SDS011;7777;52.254;9.618;2023-06-14T01:38:45;8.77;;;3.20;;
15354;SDS011;7777;52.254;9.618;2023-06-14T01:41:14;5.03;;;3.00;;
15354;SDS011;7777;52.254;9.618;2023-06-14T01:43:41;5.80;;;2.90;;
15354;SDS011;7777;52.254;9.618;2023-06-14T01:46:08;3.33;;;2.80;;
15354;SDS011;7777;52.254;9.618;2023-06-14T01:48:35;4.07;;;2.83;;
15354;SDS011;7777;52.254;9.618;2023-06-14T01:51:00;5.03;;;2.57;;
15354;SDS011;7777;52.254;9.618;2023-06-14T01:53:26;6.77;;;2.90;;
15354;SDS011;7777;52.254;9.618;2023-06-14T01:55:52;5.30;;;2.53;;
15354;SDS011;7777;52.254;9.618;2023-06-14T01:58:19;5.60;;;2.93;;
15354;SDS011;7777;52.254;9.618;2023-06-14T02:00:44;4.03;;;2.87;;
15354;SDS011;7777;52.254;9.618;2023-06-14T02:03:12;4.50;;;2.80;;
15354;SDS011;7777;52.254;9.618;2023-06-14T02:05:38;6.87;;;2.60;;
15354;SDS011;7777;52.254;9.618;2023-06-14T02:08:04;7.33;;;2.63;;
15354;SDS011;7777;52.254;9.618;2023-06-14T02:10:31;4.03;;;2.57;;
15354;SDS011;7777;52.254;9.618;2023-06-14T02:12:57;6.03;;;2.73;;
15354;SDS011;7777;52.254;9.618;2023-06-14T02:15:23;5.50;;;3.00;;
15354;SDS011;7777;52.254;9.618;2023-06-14T02:17:48;6.07;;;2.73;;
15354;SDS011;7777;52.254;9.618;2023-06-14T02:20:14;4.10;;;2.67;;
15354;SDS011;7777;52.254;9.618;2023-06-14T02:22:40;6.50;;;2.87;;
15354;SDS011;7777;52.254;9.618;2023-06-14T02:25:07;5.53;;;3.03;;
15354;SDS011;7777;52.254;9.618;2023-06-14T02:42:16;10.80;;;3.07;;
15354;SDS011;7777;52.254;9.618;2023-06-14T02:44:42;4.17;;;3.00;;
15354;SDS011;7777;52.254;9.618;2023-06-14T02:47:08;5.97;;;2.80;;
15354;SDS011;7777;52.254;9.618;2023-06-14T02:49:34;3.80;;;2.50;;
15354;SDS011;7777;52.254;9.618;2023-06-14T02:51:59;4.13;;;3.03;;
15354;SDS011;7777;52.254;9.618;2023-06-14T02:54:25;6.00;;;3.17;;
15354;SDS011;7777;52.254;9.618;2023-06-14T02:56:51;4.97;;;2.57;;
15354;SDS011;7777;52.254;9.618;2023-06-14T02:59:17;7.17;;;3.27;;
15354;SDS011;7777;52.254;9.618;2023-06-14T03:01:44;3.33;;;2.67;;
15354;SDS011;7777;52.254;9.618;2023-06-14T03:04:10;4.80;;;2.77;;
15354;SDS011;7777;52.254;9.618;2023-06-14T03:06:36;5.23;;;2.70;;
15354;SDS011;7777;52.254;9.618;2023-06-14T03:09:02;4.33;;;2.90;;
15354;SDS011;7777;52.254;9.618;2023-06-14T03:11:32;8.23;;;2.67;;
15354;SDS011;7777;52.254;9.618;2023-06-14T03:13:57;5.70;;;3.03;;
15354;SDS011;7777;52.254;9.618;2023-06-14T03:16:24;4.63;;;2.97;;
15354;SDS011;7777;52.254;9.618;2023-06-14T03:18:53;5.17;;;3.03;;
15354;SDS011;7777;52.254;9.618;2023-06-14T03:21:22;7.33;;;3.20;;
15354;SDS011;7777;52.254;9.618;2023-06-14T03:23:52;5.30;;;3.50;;
15354;SDS011;7777;52.254;9.618;2023-06-14T03:26:24;5.27;;;3.47;;
15354;SDS011;7777;52.254;9.618;2023-06-14T03:28:53;4.53;;;3.10;;
15354;SDS011;7777;52.254;9.618;2023-06-14T03:31:25;3.63;;;2.80;;
15354;SDS011;7777;52.254;9.618;2023-06-14T03:34:01;4.27;;;3.07;;
15354;SDS011;7777;52.254;9.618;2023-06-14T03:36:31;4.43;;;2.83;;
15354;SDS011;7777;52.254;9.618;2023-06-14T03:39:03;3.80;;;2.77;;
15354;SDS011;7777;52.254;9.618;2023-06-14T03:41:35;7.60;;;3.00;;
15354;SDS011;7777;52.254;9.618;2023-06-14T03:44:06;4.40;;;2.80;;
15354;SDS011;7777;52.254;9.618;2023-06-14T03:46:35;5.03;;;2.87;;
15354;SDS011;7777;52.254;9.618;2023-06-14T03:49:01;4.30;;;2.70;;
15354;SDS011;7777;52.254;9.618;2023-06-14T03:51:28;7.47;;;2.87;;
15354;SDS011;7777;52.254;9.618;2023-06-14T03:53:54;3.57;;;2.70;;
15354;SDS011;7777;52.254;9.618;2023-06-14T03:56:20;3.23;;;2.40;;
15354;SDS011;7777;52.254;9.618;2023-06-14T03:58:46;8.20;;;2.80;;
15354;SDS011;7777;52.254;9.618;2023-06-14T04:01:12;3.93;;;2.73;;
15354;SDS011;7777;52.254;9.618;2023-06-14T04:03:38;4.53;;;2.53;;
15354;SDS011;7777;52.254;9.618;2023-06-14T04:06:05;5.87;;;2.87;;
15354;SDS011;7777;52.254;9.618;2023-06-14T04:08:32;6.63;;;2.60;;
15354;SDS011;7777;52.254;9.618;2023-06-14T04:10:59;6.30;;;2.50;;
15354;SDS011;7777;52.254;9.618;2023-06-14T04:13:25;4.37;;;2.53;;
15354;SDS011;7777;52.254;9.618;2023-06-14T04:15:51;5.03;;;2.87;;
15354;SDS011;7777;52.254;9.618;2023-06-14T04:18:17;3.33;;;2.73;;
15354;SDS011;7777;52.254;9.618;2023-06-14T04:20:44;3.77;;;2.60;;
15354;SDS011;7777;52.254;9.618;2023-06-14T04:23:13;6.47;;;2.87;;
15354;SDS011;7777;52.254;9.618;2023-06-14T04:25:42;4.30;;;2.60;;
15354;SDS011;7777;52.254;9.618;2023-06-14T04:28:13;7.63;;;2.57;;
15354;SDS011;7777;52.254;9.618;2023-06-14T04:30:43;4.13;;;2.30;;
15354;SDS011;7777;52.254;9.618;2023-06-14T04:33:13;5.10;;;2.67;;
15354;SDS011;7777;52.254;9.618;2023-06-14T04:35:39;5.43;;;2.83;;
15354;SDS011;7777;52.254;9.618;2023-06-14T04:38:05;4.13;;;2.27;;
15354;SDS011;7777;52.254;9.618;2023-06-14T04:40:34;2.77;;;1.77;;
15354;SDS011;7777;52.254;9.618;2023-06-14T04:43:08;10.83;;;2.60;;
15354;SDS011;7777;52.254;9.618;2023-06-14T04:45:37;3.47;;;2.23;;
15354;SDS011;7777;52.254;9.618;2023-06-14T04:48:04;3.40;;;2.00;;
15354;SDS011;7777;52.254;9.618;2023-06-14T04:50:31;4.87;;;2.20;;
15354;SDS011;7777;52.254;9.618;2023-06-14T04:52:58;5.30;;;2.30;;
15354;SDS011;7777;52.254;9.618;2023-06-14T04:55:24;9.00;;;2.20;;
15354;SDS011;7777;52.254;9.618;2023-06-14T04:57:51;11.03;;;2.37;;
15354;SDS011;7777;52.254;9.618;2023-06-14T05:00:18;3.13;;;1.87;;
15354;SDS011;7777;52.254;9.618;2023-06-14T05:02:45;3.83;;;2.13;;
15354;SDS011;7777;52.254;9.618;2023-06-14T05:05:12;5.23;;;2.30;;
15354;SDS011;7777;52.254;9.618;2023-06-14T05:07:38;5.03;;;2.00;;
15354;SDS011;7777;52.254;9.618;2023-06-14T05:10:04;7.03;;;2.50;;
15354;SDS011;7777;52.254;9.618;2023-06-14T05:12:31;3.67;;;2.40;;
15354;SDS011;7777;52.254;9.618;2023-06-14T05:14:57;3.00;;;2.00;;
15354;SDS011;7777;52.254;9.618;2023-06-14T05:17:23;2.63;;;2.10;;
15354;SDS011;7777;52.254;9.618;2023-06-14T05:19:49;5.87;;;2.10;;
15354;SDS011;7777;52.254;9.618;2023-06-14T05:22:15;5.40;;;2.23;;
15354;SDS011;7777;52.254;9.618;2023-06-14T05:24:41;3.53;;;2.33;;
15354;SDS011;7777;52.254;9.618;2023-06-14T05:27:07;3.20;;;2.23;;
15354;SDS011;7777;52.254;9.618;2023-06-14T05:29:33;6.13;;;2.60;;
15354;SDS011;7777;52.254;9.618;2023-06-14T05:32:01;6.77;;;1.97;;
15354;SDS011;7777;52.254;9.618;2023-06-14T05:34:30;3.57;;;1.97;;
15354;SDS011;7777;52.254;9.618;2023-06-14T05:36:59;3.30;;;1.90;;
15354;SDS011;7777;52.254;9.618;2023-06-14T05:39:25;5.07;;;2.00;;
15354;SDS011;7777;52.254;9.618;2023-06-14T05:41:51;5.63;;;2.20;;
15354;SDS011;7777;52.254;9.618;2023-06-14T05:44:17;7.13;;;2.10;;
15354;SDS011;7777;52.254;9.618;2023-06-14T05:46:43;7.33;;;2.50;;
15354;SDS011;7777;52.254;9.618;2023-06-14T05:49:08;7.83;;;3.13;;
15354;SDS011;7777;52.254;9.618;2023-06-14T05:51:34;3.60;;;2.00;;
15354;SDS011;7777;52.254;9.618;2023-06-14T05:54:00;5.37;;;1.83;;
15354;SDS011;7777;52.254;9.618;2023-06-14T05:56:40;2.93;;;1.80;;
15354;SDS011;7777;52.254;9.618;2023-06-14T05:59:06;4.90;;;2.10;;
15354;SDS011;7777;52.254;9.618;2023-06-14T06:01:31;3.40;;;1.87;;
15354;SDS011;7777;52.254;9.618;2023-06-14T06:03:58;2.33;;;1.70;;
15354;SDS011;7777;52.254;9.618;2023-06-14T06:06:24;3.07;;;2.10;;
15354;SDS011;7777;52.254;9.618;2023-06-14T06:08:50;3.97;;;2.20;;
15354;SDS011;7777;52.254;9.618;2023-06-14T06:11:16;4.43;;;1.77;;
15354;SDS011;7777;52.254;9.618;2023-06-14T06:13:41;5.47;;;1.80;;
15354;SDS011;7777;52.254;9.618;2023-06-14T06:16:07;4.00;;;1.80;;
15354;SDS011;7777;52.254;9.618;2023-06-14T06:18:33;3.03;;;1.83;;
15354;SDS011;7777;52.254;9.618;2023-06-14T06:20:59;5.13;;;1.80;;
15354;SDS011;7777;52.254;9.618;2023-06-14T06:23:26;8.70;;;1.87;;
15354;SDS011;7777;52.254;9.618;2023-06-14T06:25:51;3.20;;;2.10;;
15354;SDS011;7777;52.254;9.618;2023-06-14T06:28:17;3.50;;;1.90;;
15354;SDS011;7777;52.254;9.618;2023-06-14T06:30:44;5.33;;;2.07;;
15354;SDS011;7777;52.254;9.618;2023-06-14T06:33:14;4.23;;;2.40;;
15354;SDS011;7777;52.254;9.618;2023-06-14T06:35:41;3.10;;;2.20;;
15354;SDS011;7777;52.254;9.618;2023-06-14T06:38:08;5.27;;;1.97;;
15354;SDS011;7777;52.254;9.618;2023-06-14T06:40:40;8.00;;;1.73;;
15354;SDS011;7777;52.254;9.618;2023-06-14T06:43:08;2.47;;;1.80;;
15354;SDS011;7777;52.254;9.618;2023-06-14T06:45:48;2.83;;;1.83;;
15354;SDS011;7777;52.254;9.618;2023-06-14T06:48:15;3.63;;;1.80;;
15354;SDS011;7777;52.254;9.618;2023-06-14T06:50:42;3.10;;;1.77;;
15354;SDS011;7777;52.254;9.618;2023-06-14T06:53:08;5.30;;;2.13;;
15354;SDS011;7777;52.254;9.618;2023-06-14T06:55:35;3.50;;;2.00;;
15354;SDS011;7777;52.254;9.618;2023-06-14T06:58:01;5.53;;;3.37;;
15354;SDS011;7777;52.254;9.618;2023-06-14T07:00:30;3.60;;;2.40;;
15354;SDS011;7777;52.254;9.618;2023-06-14T07:03:00;2.37;;;1.70;;
15354;SDS011;7777;52.254;9.618;2023-06-14T07:05:29;5.63;;;2.57;;
15354;SDS011;7777;52.254;9.618;2023-06-14T07:07:57;2.97;;;2.00;;
15354;SDS011;7777;52.254;9.618;2023-06-14T07:10:25;6.77;;;2.50;;
15354;SDS011;7777;52.254;9.618;2023-06-14T07:12:54;6.43;;;2.07;;
15354;SDS011;7777;52.254;9.618;2023-06-14T07:15:22;2.57;;;1.90;;
15354;SDS011;7777;52.254;9.618;2023-06-14T07:17:49;3.20;;;2.10;;
15354;SDS011;7777;52.254;9.618;2023-06-14T07:20:16;2.70;;;1.90;;
15354;SDS011;7777;52.254;9.618;2023-06-14T07:22:47;6.23;;;2.10;;
15354;SDS011;7777;52.254;9.618;2023-06-14T07:25:14;4.57;;;2.27;;
15354;SDS011;7777;52.254;9.618;2023-06-14T07:27:41;5.10;;;1.83;;
15354;SDS011;7777;52.254;9.618;2023-06-14T07:30:08;2.57;;;1.93;;
15354;SDS011;7777;52.254;9.618;2023-06-14T07:32:34;3.73;;;1.80;;
15354;SDS011;7777;52.254;9.618;2023-06-14T07:35:01;3.83;;;2.03;;
15354;SDS011;7777;52.254;9.618;2023-06-14T07:37:28;2.40;;;1.33;;
15354;SDS011;7777;52.254;9.618;2023-06-14T07:39:54;3.17;;;2.00;;
15354;SDS011;7777;52.254;9.618;2023-06-14T07:42:19;3.97;;;1.67;;
15354;SDS011;7777;52.254;9.618;2023-06-14T07:44:45;3.27;;;1.97;;
15354;SDS011;7777;52.254;9.618;2023-06-14T07:47:11;1.80;;;1.37;;
15354;SDS011;7777;52.254;9.618;2023-06-14T07:49:37;3.47;;;1.70;;
15354;SDS011;7777;52.254;9.618;2023-06-14T07:52:03;1.97;;;1.60;;
15354;SDS011;7777;52.254;9.618;2023-06-14T07:54:30;2.93;;;1.70;;
15354;SDS011;7777;52.254;9.618;2023-06-14T07:56:57;2.87;;;2.03;;
15354;SDS011;7777;52.254;9.618;2023-06-14T07:59:25;5.07;;;1.93;;
15354;SDS011;7777;52.254;9.618;2023-06-14T08:01:51;2.60;;;1.60;;
15354;SDS011;7777;52.254;9.618;2023-06-14T08:04:17;3.70;;;1.60;;
15354;SDS011;7777;52.254;9.618;2023-06-14T08:06:43;2.50;;;1.77;;
15354;SDS011;7777;52.254;9.618;2023-06-14T08:09:13;3.10;;;1.60;;
15354;SDS011;7777;52.254;9.618;2023-06-14T08:11:38;2.17;;;1.60;;
15354;SDS011;7777;52.254;9.618;2023-06-14T08:14:04;4.00;;;1.83;;
15354;SDS011;7777;52.254;9.618;2023-06-14T08:16:30;3.27;;;1.90;;
15354;SDS011;7777;52.254;9.618;2023-06-14T08:18:56;2.23;;;1.60;;
15354;SDS011;7777;52.254;9.618;2023-06-14T08:21:22;5.33;;;1.77;;
15354;SDS011;7777;52.254;9.618;2023-06-14T08:24:02;2.83;;;1.70;;
15354;SDS011;7777;52.254;9.618;2023-06-14T08:26:34;2.70;;;1.70;;
15354;SDS011;7777;52.254;9.618;2023-06-14T08:29:17;1.77;;;1.40;;
15354;SDS011;7777;52.254;9.618;2023-06-14T08:31:47;2.73;;;1.43;;
15354;SDS011;7777;52.254;9.618;2023-06-14T08:34:17;2.67;;;1.40;;
15354;SDS011;7777;52.254;9.618;2023-06-14T08:36:49;6.07;;;2.03;;
15354;SDS011;7777;52.254;9.618;2023-06-14T08:39:17;2.63;;;1.53;;
15354;SDS011;7777;52.254;9.618;2023-06-14T08:41:45;3.30;;;1.50;;
15354;SDS011;7777;52.254;9.618;2023-06-14T08:44:15;3.77;;;1.47;;
15354;SDS011;7777;52.254;9.618;2023-06-14T08:46:42;2.53;;;1.43;;
15354;SDS011;7777;52.254;9.618;2023-06-14T08:49:10;3.80;;;1.70;;
15354;SDS011;7777;52.254;9.618;2023-06-14T08:51:37;3.93;;;1.27;;
15354;SDS011;7777;52.254;9.618;2023-06-14T08:54:05;1.40;;;1.07;;
15354;SDS011;7777;52.254;9.618;2023-06-14T08:56:32;6.87;;;1.60;;
15354;SDS011;7777;52.254;9.618;2023-06-14T08:58:59;1.87;;;1.40;;
15354;SDS011;7777;52.254;9.618;2023-06-14T09:01:30;3.50;;;1.70;;
15354;SDS011;7777;52.254;9.618;2023-06-14T09:03:59;2.10;;;1.60;;
15354;SDS011;7777;52.254;9.618;2023-06-14T09:06:25;7.10;;;1.73;;
15354;SDS011;7777;52.254;9.618;2023-06-14T09:08:53;3.30;;;1.60;;
15354;SDS011;7777;52.254;9.618;2023-06-14T09:11:23;3.80;;;1.60;;
15354;SDS011;7777;52.254;9.618;2023-06-14T09:13:51;2.43;;;1.33;;
15354;SDS011;7777;52.254;9.618;2023-06-14T09:16:17;1.73;;;1.40;;
15354;SDS011;7777;52.254;9.618;2023-06-14T09:18:44;3.53;;;1.70;;
15354;SDS011;7777;52.254;9.618;2023-06-14T09:21:15;5.13;;;1.70;;
15354;SDS011;7777;52.254;9.618;2023-06-14T09:23:46;3.77;;;1.70;;
15354;SDS011;7777;52.254;9.618;2023-06-14T09:26:16;5.07;;;1.33;;
15354;SDS011;7777;52.254;9.618;2023-06-14T09:28:49;3.20;;;1.77;;
15354;SDS011;7777;52.254;9.618;2023-06-14T09:31:16;5.77;;;1.90;;
15354;SDS011;7777;52.254;9.618;2023-06-14T09:33:44;3.10;;;1.30;;
15354;SDS011;7777;52.254;9.618;2023-06-14T09:36:18;2.33;;;1.77;;
15354;SDS011;7777;52.254;9.618;2023-06-14T09:38:56;17.30;;;2.20;;
15354;SDS011;7777;52.254;9.618;2023-06-14T09:41:34;2.20;;;1.57;;
15354;SDS011;7777;52.254;9.618;2023-06-14T09:44:05;3.43;;;1.90;;
15354;SDS011;7777;52.254;9.618;2023-06-14T09:46:36;3.17;;;1.90;;
15354;SDS011;7777;52.254;9.618;2023-06-14T09:49:03;4.87;;;1.53;;
15354;SDS011;7777;52.254;9.618;2023-06-14T09:51:30;1.93;;;1.47;;
15354;SDS011;7777;52.254;9.618;2023-06-14T09:54:00;2.40;;;1.60;;
15354;SDS011;7777;52.254;9.618;2023-06-14T09:56:30;4.77;;;1.47;;
15354;SDS011;7777;52.254;9.618;2023-06-14T09:59:04;2.03;;;1.60;;
15354;SDS011;7777;52.254;9.618;2023-06-14T10:01:33;2.33;;;1.50;;
15354;SDS011;7777;52.254;9.618;2023-06-14T10:04:02;4.30;;;1.77;;
15354;SDS011;7777;52.254;9.618;2023-06-14T10:06:30;5.07;;;1.60;;
15354;SDS011;7777;52.254;9.618;2023-06-14T10:08:57;2.40;;;1.50;;
15354;SDS011;7777;52.254;9.618;2023-06-14T10:11:25;2.50;;;1.30;;
15354;SDS011;7777;52.254;9.618;2023-06-14T10:13:52;2.47;;;1.47;;
15354;SDS011;7777;52.254;9.618;2023-06-14T10:16:22;1.80;;;1.20;;
15354;SDS011;7777;52.254;9.618;2023-06-14T10:25:07;3.00;;;2.13;;
15354;SDS011;7777;52.254;9.618;2023-06-14T10:27:38;5.83;;;1.63;;
15354;SDS011;7777;52.254;9.618;2023-06-14T10:30:05;2.47;;;1.40;;
15354;SDS011;7777;52.254;9.618;2023-06-14T10:32:33;6.67;;;2.07;;
15354;SDS011;7777;52.254;9.618;2023-06-14T10:34:59;4.23;;;1.50;;
15354;SDS011;7777;52.254;9.618;2023-06-14T10:37:41;4.47;;;1.50;;
15354;SDS011;7777;52.254;9.618;2023-06-14T10:40:07;2.97;;;1.30;;
15354;SDS011;7777;52.254;9.618;2023-06-14T10:42:33;2.57;;;1.47;;
15354;SDS011;7777;52.254;9.618;2023-06-14T10:45:00;2.80;;;1.53;;
15354;SDS011;7777;52.254;9.618;2023-06-14T10:49:54;5.17;;;1.67;;
15354;SDS011;7777;52.254;9.618;2023-06-14T10:52:28;6.03;;;1.73;;
15354;SDS011;7777;52.254;9.618;2023-06-14T10:55:09;4.13;;;1.57;;
15354;SDS011;7777;52.254;9.618;2023-06-14T10:57:53;2.40;;;1.60;;
15354;SDS011;7777;52.254;9.618;2023-06-14T11:00:24;1.97;;;1.50;;
15354;SDS011;7777;52.254;9.618;2023-06-14T11:11:18;5.10;;;1.73;;
15354;SDS011;7777;52.254;9.618;2023-06-14T11:13:47;4.37;;;1.80;;
15354;SDS011;7777;52.254;9.618;2023-06-14T11:16:13;3.77;;;1.63;;
15354;SDS011;7777;52.254;9.618;2023-06-14T11:18:41;1.83;;;1.50;;
15354;SDS011;7777;52.254;9.618;2023-06-14T11:21:07;3.93;;;2.23;;
15354;SDS011;7777;52.254;9.618;2023-06-14T11:23:34;4.03;;;1.80;;
15354;SDS011;7777;52.254;9.618;2023-06-14T11:26:03;4.00;;;1.90;;
15354;SDS011;7777;52.254;9.618;2023-06-14T11:28:38;3.20;;;2.10;;
15354;SDS011;7777;52.254;9.618;2023-06-14T11:31:09;4.13;;;1.90;;
15354;SDS011;7777;52.254;9.618;2023-06-14T11:33:36;4.33;;;1.80;;
15354;SDS011;7777;52.254;9.618;2023-06-14T11:36:06;3.07;;;2.10;;
15354;SDS011;7777;52.254;9.618;2023-06-14T11:38:45;4.37;;;2.33;;
15354;SDS011;7777;52.254;9.618;2023-06-14T11:41:24;3.83;;;2.00;;
15354;SDS011;7777;52.254;9.618;2023-06-14T11:44:20;4.27;;;1.80;;
15354;SDS011;7777;52.254;9.618;2023-06-14T11:46:55;4.63;;;1.80;;
15354;SDS011;7777;52.254;9.618;2023-06-14T11:49:23;4.87;;;1.90;;
15354;SDS011;7777;52.254;9.618;2023-06-14T11:51:53;4.30;;;1.90;;
15354;SDS011;7777;52.254;9.618;2023-06-14T11:54:19;3.70;;;2.10;;
15354;SDS011;7777;52.254;9.618;2023-06-14T11:56:45;4.40;;;2.17;;
15354;SDS011;7777;52.254;9.618;2023-06-14T11:59:12;4.10;;;2.23;;
15354;SDS011;7777;52.254;9.618;2023-06-14T12:01:39;3.23;;;1.93;;
15354;SDS011;7777;52.254;9.618;2023-06-14T12:04:08;7.17;;;2.10;;
15354;SDS011;7777;52.254;9.618;2023-06-14T12:06:34;3.07;;;1.70;;
15354;SDS011;7777;52.254;9.618;2023-06-14T12:09:04;6.07;;;2.50;;
15354;SDS011;7777;52.254;9.618;2023-06-14T12:11:35;6.17;;;2.60;;
15354;SDS011;7777;52.254;9.618;2023-06-14T12:14:05;6.17;;;2.20;;
15354;SDS011;7777;52.254;9.618;2023-06-14T12:16:34;3.80;;;2.20;;
15354;SDS011;7777;52.254;9.618;2023-06-14T12:19:25;4.30;;;2.27;;
15354;SDS011;7777;52.254;9.618;2023-06-14T12:21:51;6.73;;;2.40;;
15354;SDS011;7777;52.254;9.618;2023-06-14T12:24:17;6.33;;;2.57;;
15354;SDS011;7777;52.254;9.618;2023-06-14T12:26:43;6.80;;;2.17;;
15354;SDS011;7777;52.254;9.618;2023-06-14T12:29:08;6.77;;;2.87;;
15354;SDS011;7777;52.254;9.618;2023-06-14T12:31:35;6.67;;;2.20;;
15354;SDS011;7777;52.254;9.618;2023-06-14T12:34:01;4.37;;;2.00;;
15354;SDS011;7777;52.254;9.618;2023-06-14T12:36:27;3.07;;;1.83;;
15354;SDS011;7777;52.254;9.618;2023-06-14T12:38:53;4.47;;;2.30;;
15354;SDS011;7777;52.254;9.618;2023-06-14T12:41:20;6.40;;;2.30;;
15354;SDS011;7777;52.254;9.618;2023-06-14T12:43:47;4.90;;;2.23;;
15354;SDS011;7777;52.254;9.618;2023-06-14T12:46:13;4.70;;;2.50;;
15354;SDS011;7777;52.254;9.618;2023-06-14T12:48:39;5.77;;;2.67;;
15354;SDS011;7777;52.254;9.618;2023-06-14T12:51:05;4.93;;;2.70;;
15354;SDS011;7777;52.254;9.618;2023-06-14T12:53:31;3.20;;;2.23;;
15354;SDS011;7777;52.254;9.618;2023-06-14T12:55:57;4.03;;;2.73;;
15354;SDS011;7777;52.254;9.618;2023-06-14T12:58:22;5.43;;;2.43;;
15354;SDS011;7777;52.254;9.618;2023-06-14T13:00:49;6.50;;;2.43;;
15354;SDS011;7777;52.254;9.618;2023-06-14T13:03:15;4.93;;;2.33;;
15354;SDS011;7777;52.254;9.618;2023-06-14T13:05:41;2.80;;;2.23;;
15354;SDS011;7777;52.254;9.618;2023-06-14T13:08:08;5.20;;;2.73;;
15354;SDS011;7777;52.254;9.618;2023-06-14T13:10:34;10.83;;;2.33;;
15354;SDS011;7777;52.254;9.618;2023-06-14T13:12:59;7.00;;;2.50;;
15354;SDS011;7777;52.254;9.618;2023-06-14T13:15:26;5.47;;;2.60;;
15354;SDS011;7777;52.254;9.618;2023-06-14T13:17:52;6.27;;;2.70;;
15354;SDS011;7777;52.254;9.618;2023-06-14T13:20:18;4.57;;;2.40;;
15354;SDS011;7777;52.254;9.618;2023-06-14T13:22:44;5.53;;;2.57;;
15354;SDS011;7777;52.254;9.618;2023-06-14T13:25:09;10.47;;;2.60;;
15354;SDS011;7777;52.254;9.618;2023-06-14T13:27:35;5.63;;;2.67;;
15354;SDS011;7777;52.254;9.618;2023-06-14T13:30:02;4.87;;;3.00;;
15354;SDS011;7777;52.254;9.618;2023-06-14T13:32:30;5.17;;;2.70;;
15354;SDS011;7777;52.254;9.618;2023-06-14T13:34:56;5.83;;;2.80;;
15354;SDS011;7777;52.254;9.618;2023-06-14T13:37:22;4.17;;;2.60;;
15354;SDS011;7777;52.254;9.618;2023-06-14T13:39:49;3.63;;;2.67;;
15354;SDS011;7777;52.254;9.618;2023-06-14T13:42:14;5.23;;;3.07;;
15354;SDS011;7777;52.254;9.618;2023-06-14T13:44:40;9.10;;;3.30;;
15354;SDS011;7777;52.254;9.618;2023-06-14T13:47:06;6.10;;;2.70;;
15354;SDS011;7777;52.254;9.618;2023-06-14T13:49:32;4.50;;;2.80;;
15354;SDS011;7777;52.254;9.618;2023-06-14T13:52:00;8.50;;;2.70;;
15354;SDS011;7777;52.254;9.618;2023-06-14T13:54:26;9.30;;;2.60;;
15354;SDS011;7777;52.254;9.618;2023-06-14T13:56:52;6.93;;;2.97;;
15354;SDS011;7777;52.254;9.618;2023-06-14T13:59:18;4.77;;;2.50;;
15354;SDS011;7777;52.254;9.618;2023-06-14T14:01:44;10.43;;;2.80;;
15354;SDS011;7777;52.254;9.618;2023-06-14T14:04:10;5.50;;;2.90;;
15354;SDS011;7777;52.254;9.618;2023-06-14T14:06:36;3.80;;;2.70;;
15354;SDS011;7777;52.254;9.618;2023-06-14T14:09:02;11.60;;;3.20;;
15354;SDS011;7777;52.254;9.618;2023-06-14T14:11:28;5.07;;;2.80;;
15354;SDS011;7777;52.254;9.618;2023-06-14T14:13:58;3.90;;;2.37;;
15354;SDS011;7777;52.254;9.618;2023-06-14T14:16:24;4.90;;;2.60;;
15354;SDS011;7777;52.254;9.618;2023-06-14T14:18:50;5.23;;;2.60;;
15354;SDS011;7777;52.254;9.618;2023-06-14T14:21:16;5.17;;;3.10;;
15354;SDS011;7777;52.254;9.618;2023-06-14T14:23:42;10.77;;;3.27;;
15354;SDS011;7777;52.254;9.618;2023-06-14T14:26:10;5.27;;;3.30;;
15354;SDS011;7777;52.254;9.618;2023-06-14T14:28:40;3.67;;;2.60;;
15354;SDS011;7777;52.254;9.618;2023-06-14T14:31:06;6.03;;;2.90;;
15354;SDS011;7777;52.254;9.618;2023-06-14T14:33:32;6.30;;;2.70;;
15354;SDS011;7777;52.254;9.618;2023-06-14T14:35:59;7.00;;;2.90;;
15354;SDS011;7777;52.254;9.618;2023-06-14T14:38:28;7.57;;;3.27;;
15354;SDS011;7777;52.254;9.618;2023-06-14T14:40:55;8.73;;;2.70;;
15354;SDS011;7777;52.254;9.618;2023-06-14T14:43:20;9.77;;;3.10;;
15354;SDS011;7777;52.254;9.618;2023-06-14T14:45:46;3.10;;;2.33;;
15354;SDS011;7777;52.254;9.618;2023-06-14T14:48:12;5.57;;;2.77;;
15354;SDS011;7777;52.254;9.618;2023-06-14T14:50:37;5.87;;;2.80;;
15354;SDS011;7777;52.254;9.618;2023-06-14T14:53:03;6.60;;;2.60;;
15354;SDS011;7777;52.254;9.618;2023-06-14T14:55:30;4.73;;;2.90;;
15354;SDS011;7777;52.254;9.618;2023-06-14T14:57:57;5.47;;;2.80;;
15354;SDS011;7777;52.254;9.618;2023-06-14T15:00:23;7.97;;;3.27;;
15354;SDS011;7777;52.254;9.618;2023-06-14T15:02:49;7.50;;;2.60;;
15354;SDS011;7777;52.254;9.618;2023-06-14T15:05:15;6.33;;;2.83;;
15354;SDS011;7777;52.254;9.618;2023-06-14T15:07:41;3.70;;;2.60;;
15354;SDS011;7777;52.254;9.618;2023-06-14T15:10:11;3.30;;;2.47;;
15354;SDS011;7777;52.254;9.618;2023-06-14T15:12:37;5.13;;;2.97;;
15354;SDS011;7777;52.254;9.618;2023-06-14T15:15:03;5.30;;;3.20;;
15354;SDS011;7777;52.254;9.618;2023-06-14T15:17:29;8.80;;;2.90;;
15354;SDS011;7777;52.254;9.618;2023-06-14T15:19:55;13.97;;;3.17;;
15354;SDS011;7777;52.254;9.618;2023-06-14T15:22:21;6.90;;;3.13;;
15354;SDS011;7777;52.254;9.618;2023-06-14T15:24:47;5.70;;;2.67;;
15354;SDS011;7777;52.254;9.618;2023-06-14T15:27:12;7.87;;;3.17;;
15354;SDS011;7777;52.254;9.618;2023-06-14T15:29:40;5.70;;;2.80;;
15354;SDS011;7777;52.254;9.618;2023-06-14T15:32:07;3.77;;;2.90;;
15354;SDS011;7777;52.254;9.618;2023-06-14T15:34:33;10.23;;;3.30;;
15354;SDS011;7777;52.254;9.618;2023-06-14T15:37:00;6.73;;;2.60;;
15354;SDS011;7777;52.254;9.618;2023-06-14T15:39:28;7.23;;;2.63;;
15354;SDS011;7777;52.254;9.618;2023-06-14T15:41:56;4.47;;;2.40;;
15354;SDS011;7777;52.254;9.618;2023-06-14T15:44:23;7.77;;;2.40;;